This is the latest recevied weather packets stored in our database for station/object N0ZRD-10. If no packets are shown the sender has not sent any weather packets the latest 10 day(s).
| Time | Temp. | Humidity | Pressure | Rain* | Wind** | Luminosity | Snow |
|---|---|---|---|---|---|---|---|
| 1778012910 | 3.89° C | 45% | - | 0 mm | - | - | - |
| 1778012309 | 4.44° C | 49% | - | 0 mm | - | - | - |
| 1778011708 | 3.89° C | 44% | - | 0 mm | - | - | - |
| 1778010506 | 3.89° C | 52% | - | 0 mm | - | - | - |
| 1778009905 | 2.78° C | 47% | - | 0 mm | - | - | - |
| 1778009304 | 3.33° C | 50% | - | 0 mm | - | - | - |
| 1778008703 | 2.78° C | 50% | - | 0 mm | - | - | - |
| 1778008102 | 3.89° C | 54% | - | 0 mm | - | - | - |
| 1778007501 | 3.33° C | 49% | - | 0 mm | - | - | - |
| 1778006900 | 3.33° C | 49% | - | 0 mm | - | - | - |
| 1778006298 | 3.33° C | 51% | - | 0 mm | - | - | - |
| 1778005698 | 3.33° C | 46% | - | 0 mm | - | - | - |
| 1778005096 | 3.33° C | 47% | - | 0 mm | - | - | - |
| 1778004496 | 3.33° C | 48% | - | 0 mm | - | - | - |
| 1778003895 | 3.33° C | 47% | - | 0 mm | - | - | - |
| 1778002693 | 2.78° C | 47% | - | 0 mm | - | - | - |
| 1778001491 | 3.33° C | 50% | - | 0 mm | - | - | - |
| 1778000890 | 2.78° C | 49% | - | 0 mm | - | - | - |
| 1778000393 | 2.78° C | 51% | - | 0 mm | - | - | - |
| 1778000289 | 2.78° C | 51% | - | 0 mm | - | - | - |
| 1777999688 | 2.22° C | 49% | - | 0 mm | - | - | - |
| 1777999087 | 2.22° C | 48% | - | 0 mm | - | - | - |
| 1777998486 | 2.22° C | 47% | - | 0 mm | - | - | - |
| 1777997885 | 2.22° C | 52% | - | 0 mm | - | - | - |
| 1777997283 | 2.22° C | 50% | - | 0 mm | - | - | - |
* Rain latest hour (hover to see other rain measurements)
** Current wind speed in m/s (hover to see current wind gust speed)